sensor_id;sensor_type;location;lat;lon;timestamp;pressure;altitude;pressure_sealevel;temperature;humidity
21980;BME280;11154;48.558;9.234;2023-07-20T00:01:12;97414.88;;;23.35;63.19
21980;BME280;11154;48.558;9.234;2023-07-20T00:03:14;97415.38;;;23.32;63.71
21980;BME280;11154;48.558;9.234;2023-07-20T00:05:19;97412.88;;;23.30;63.73
21980;BME280;11154;48.558;9.234;2023-07-20T00:07:21;97415.03;;;23.28;62.21
21980;BME280;11154;48.558;9.234;2023-07-20T00:09:25;97409.81;;;23.27;62.38
21980;BME280;11154;48.558;9.234;2023-07-20T00:11:28;97415.50;;;23.26;63.26
21980;BME280;11154;48.558;9.234;2023-07-20T00:13:29;97408.69;;;23.23;63.68
21980;BME280;11154;48.558;9.234;2023-07-20T00:15:31;97417.88;;;23.22;64.25
21980;BME280;11154;48.558;9.234;2023-07-20T00:19:34;97408.00;;;23.16;63.99
21980;BME280;11154;48.558;9.234;2023-07-20T00:21:35;97408.50;;;23.13;64.10
21980;BME280;11154;48.558;9.234;2023-07-20T00:23:37;97415.00;;;23.12;64.18
21980;BME280;11154;48.558;9.234;2023-07-20T00:25:39;97412.28;;;23.12;64.42
21980;BME280;11154;48.558;9.234;2023-07-20T00:27:42;97406.97;;;23.06;65.33
21980;BME280;11154;48.558;9.234;2023-07-20T00:29:44;97412.06;;;23.02;65.79
21980;BME280;11154;48.558;9.234;2023-07-20T00:31:45;97409.22;;;22.97;66.14
21980;BME280;11154;48.558;9.234;2023-07-20T00:33:47;97405.09;;;22.95;66.17
21980;BME280;11154;48.558;9.234;2023-07-20T00:35:48;97407.22;;;22.93;66.63
21980;BME280;11154;48.558;9.234;2023-07-20T00:37:50;97407.72;;;22.90;66.25
21980;BME280;11154;48.558;9.234;2023-07-20T00:39:53;97407.38;;;22.86;66.48
21980;BME280;11154;48.558;9.234;2023-07-20T00:41:54;97405.72;;;22.85;66.94
21980;BME280;11154;48.558;9.234;2023-07-20T00:43:57;97397.84;;;22.84;66.62
21980;BME280;11154;48.558;9.234;2023-07-20T00:45:59;97397.84;;;22.84;66.43
21980;BME280;11154;48.558;9.234;2023-07-20T00:48:04;97401.47;;;22.89;66.37
21980;BME280;11154;48.558;9.234;2023-07-20T00:50:08;97411.50;;;22.89;66.35
21980;BME280;11154;48.558;9.234;2023-07-20T00:52:10;97400.41;;;22.90;66.11
21980;BME280;11154;48.558;9.234;2023-07-20T00:54:15;97403.09;;;22.90;66.08
21980;BME280;11154;48.558;9.234;2023-07-20T00:56:15;97403.94;;;22.91;66.72
21980;BME280;11154;48.558;9.234;2023-07-20T00:58:17;97402.56;;;22.88;67.55
21980;BME280;11154;48.558;9.234;2023-07-20T01:00:20;97413.63;;;22.87;68.07
21980;BME280;11154;48.558;9.234;2023-07-20T01:02:22;97399.72;;;22.83;68.46
21980;BME280;11154;48.558;9.234;2023-07-20T01:04:22;97407.84;;;22.83;69.26
21980;BME280;11154;48.558;9.234;2023-07-20T01:06:36;97397.50;;;22.80;68.69
21980;BME280;11154;48.558;9.234;2023-07-20T01:08:44;97393.13;;;22.79;68.89
21980;BME280;11154;48.558;9.234;2023-07-20T01:10:54;97407.16;;;22.76;68.79
21980;BME280;11154;48.558;9.234;2023-07-20T01:12:57;97409.06;;;22.76;68.90
21980;BME280;11154;48.558;9.234;2023-07-20T01:15:00;97404.69;;;22.75;68.57
21980;BME280;11154;48.558;9.234;2023-07-20T01:17:03;97404.69;;;22.75;69.06
21980;BME280;11154;48.558;9.234;2023-07-20T01:19:05;97404.94;;;22.73;68.99
21980;BME280;11154;48.558;9.234;2023-07-20T01:21:09;97400.56;;;22.72;69.24
21980;BME280;11154;48.558;9.234;2023-07-20T01:23:35;97410.63;;;22.72;68.71
21980;BME280;11154;48.558;9.234;2023-07-20T01:26:01;97413.53;;;22.70;68.83
21980;BME280;11154;48.558;9.234;2023-07-20T01:28:44;97406.47;;;22.69;69.02
21980;BME280;11154;48.558;9.234;2023-07-20T01:30:59;97410.28;;;22.68;69.61
21980;BME280;11154;48.558;9.234;2023-07-20T01:33:07;97410.72;;;22.65;69.38
21980;BME280;11154;48.558;9.234;2023-07-20T01:35:11;97403.44;;;22.66;69.25
21980;BME280;11154;48.558;9.234;2023-07-20T01:37:16;97408.03;;;22.65;69.88
21980;BME280;11154;48.558;9.234;2023-07-20T01:39:20;97411.22;;;22.62;69.17
21980;BME280;11154;48.558;9.234;2023-07-20T01:41:23;97413.69;;;22.64;69.32
21980;BME280;11154;48.558;9.234;2023-07-20T01:43:24;97419.13;;;22.64;68.41
21980;BME280;11154;48.558;9.234;2023-07-20T01:45:26;97399.28;;;22.63;68.78
21980;BME280;11154;48.558;9.234;2023-07-20T01:47:28;97405.81;;;22.62;68.26
21980;BME280;11154;48.558;9.234;2023-07-20T01:49:31;97403.31;;;22.61;69.02
21980;BME280;11154;48.558;9.234;2023-07-20T01:51:32;97402.75;;;22.59;68.26
21980;BME280;11154;48.558;9.234;2023-07-20T01:53:34;97402.16;;;22.57;68.85
21980;BME280;11154;48.558;9.234;2023-07-20T01:55:35;97401.09;;;22.58;68.30
21980;BME280;11154;48.558;9.234;2023-07-20T01:57:37;97399.69;;;22.55;67.66
21980;BME280;11154;48.558;9.234;2023-07-20T01:59:39;97395.91;;;22.56;65.48
21980;BME280;11154;48.558;9.234;2023-07-20T02:01:41;97400.25;;;22.57;67.00
21980;BME280;11154;48.558;9.234;2023-07-20T02:03:43;97399.69;;;22.55;65.20
21980;BME280;11154;48.558;9.234;2023-07-20T02:05:45;97409.47;;;22.56;65.96
21980;BME280;11154;48.558;9.234;2023-07-20T02:07:46;97407.81;;;22.55;65.24
21980;BME280;11154;48.558;9.234;2023-07-20T02:09:48;97402.63;;;22.54;63.87
21980;BME280;11154;48.558;9.234;2023-07-20T02:11:49;97404.97;;;22.51;63.24
21980;BME280;11154;48.558;9.234;2023-07-20T02:13:51;97406.88;;;22.50;63.31
21980;BME280;11154;48.558;9.234;2023-07-20T02:15:53;97401.47;;;22.50;64.07
21980;BME280;11154;48.558;9.234;2023-07-20T02:17:54;97403.56;;;22.48;64.24
21980;BME280;11154;48.558;9.234;2023-07-20T02:19:56;97413.84;;;22.46;63.05
21980;BME280;11154;48.558;9.234;2023-07-20T02:22:00;97406.19;;;22.43;62.72
21980;BME280;11154;48.558;9.234;2023-07-20T02:24:02;97403.72;;;22.42;62.42
21980;BME280;11154;48.558;9.234;2023-07-20T02:26:03;97409.94;;;22.42;61.08
21980;BME280;11154;48.558;9.234;2023-07-20T02:28:06;97407.47;;;22.41;61.03
21980;BME280;11154;48.558;9.234;2023-07-20T02:30:08;97406.69;;;22.40;60.63
21980;BME280;11154;48.558;9.234;2023-07-20T02:32:10;97405.03;;;22.39;59.45
21980;BME280;11154;48.558;9.234;2023-07-20T02:34:12;97405.81;;;22.40;59.21
21980;BME280;11154;48.558;9.234;2023-07-20T02:36:13;97408.78;;;22.38;58.93
21980;BME280;11154;48.558;9.234;2023-07-20T02:38:18;97407.94;;;22.38;59.74
21980;BME280;11154;48.558;9.234;2023-07-20T02:40:19;97415.50;;;22.36;59.79
21980;BME280;11154;48.558;9.234;2023-07-20T02:42:20;97409.50;;;22.34;60.59
21980;BME280;11154;48.558;9.234;2023-07-20T02:44:23;97415.97;;;22.33;61.64
21980;BME280;11154;48.558;9.234;2023-07-20T02:46:24;97417.03;;;22.32;61.93
21980;BME280;11154;48.558;9.234;2023-07-20T02:48:25;97415.41;;;22.31;61.50
21980;BME280;11154;48.558;9.234;2023-07-20T02:50:27;97420.81;;;22.31;61.47
21980;BME280;11154;48.558;9.234;2023-07-20T02:52:28;97422.44;;;22.32;61.84
21980;BME280;11154;48.558;9.234;2023-07-20T02:54:31;97425.16;;;22.32;61.93
21980;BME280;11154;48.558;9.234;2023-07-20T02:56:33;97415.84;;;22.28;61.96
21980;BME280;11154;48.558;9.234;2023-07-20T02:58:34;97417.94;;;22.26;61.37
21980;BME280;11154;48.558;9.234;2023-07-20T03:00:37;97422.31;;;22.27;61.16
21980;BME280;11154;48.558;9.234;2023-07-20T03:02:38;97426.91;;;22.26;61.19
21980;BME280;11154;48.558;9.234;2023-07-20T03:04:40;97419.03;;;22.25;61.36
21980;BME280;11154;48.558;9.234;2023-07-20T03:06:40;97415.72;;;22.23;60.64
21980;BME280;11154;48.558;9.234;2023-07-20T03:08:43;97423.25;;;22.21;60.32
21980;BME280;11154;48.558;9.234;2023-07-20T03:10:48;97420.19;;;22.17;60.67
21980;BME280;11154;48.558;9.234;2023-07-20T03:12:50;97414.16;;;22.15;61.41
21980;BME280;11154;48.558;9.234;2023-07-20T03:14:51;97415.72;;;22.11;61.77
21980;BME280;11154;48.558;9.234;2023-07-20T03:16:54;97412.66;;;22.08;61.38
21980;BME280;11154;48.558;9.234;2023-07-20T03:18:55;97427.50;;;22.05;61.88
21980;BME280;11154;48.558;9.234;2023-07-20T03:20:57;97417.59;;;21.99;61.72
21980;BME280;11154;48.558;9.234;2023-07-20T03:22:57;97422.41;;;21.97;61.77
21980;BME280;11154;48.558;9.234;2023-07-20T03:24:59;97422.06;;;21.94;61.59
21980;BME280;11154;48.558;9.234;2023-07-20T03:27:02;97417.94;;;21.91;61.67
21980;BME280;11154;48.558;9.234;2023-07-20T03:29:04;97417.59;;;21.88;61.66
21980;BME280;11154;48.558;9.234;2023-07-20T03:31:06;97424.06;;;21.87;62.26
21980;BME280;11154;48.558;9.234;2023-07-20T03:33:08;97423.94;;;21.82;61.85
21980;BME280;11154;48.558;9.234;2023-07-20T03:35:09;97422.28;;;21.81;61.57
21980;BME280;11154;48.558;9.234;2023-07-20T03:37:10;97421.94;;;21.77;60.99
21980;BME280;11154;48.558;9.234;2023-07-20T03:39:12;97425.94;;;21.75;61.40
21980;BME280;11154;48.558;9.234;2023-07-20T03:41:13;97437.00;;;21.74;61.51
21980;BME280;11154;48.558;9.234;2023-07-20T03:43:18;97431.22;;;21.70;62.16
21980;BME280;11154;48.558;9.234;2023-07-20T03:45:19;97429.94;;;21.43;62.66
21980;BME280;11154;48.558;9.234;2023-07-20T03:47:24;97433.94;;;21.00;65.09
21980;BME280;11154;48.558;9.234;2023-07-20T03:49:25;97432.06;;;20.83;66.15
21980;BME280;11154;48.558;9.234;2023-07-20T03:51:27;97429.94;;;20.67;66.97
21980;BME280;11154;48.558;9.234;2023-07-20T03:53:29;97442.78;;;20.53;67.82
21980;BME280;11154;48.558;9.234;2023-07-20T03:55:30;97437.44;;;20.47;67.97
21980;BME280;11154;48.558;9.234;2023-07-20T03:57:32;97437.75;;;20.39;68.75
21980;BME280;11154;48.558;9.234;2023-07-20T03:59:34;97445.03;;;20.38;69.05
21980;BME280;11154;48.558;9.234;2023-07-20T04:01:36;97441.75;;;20.36;69.09
21980;BME280;11154;48.558;9.234;2023-07-20T04:03:40;97445.91;;;20.32;69.12
21980;BME280;11154;48.558;9.234;2023-07-20T04:05:41;97442.84;;;20.29;69.08
21980;BME280;11154;48.558;9.234;2023-07-20T04:07:43;97442.63;;;20.31;68.66
21980;BME280;11154;48.558;9.234;2023-07-20T04:09:43;97442.84;;;20.29;69.96
21980;BME280;11154;48.558;9.234;2023-07-20T04:11:45;97447.06;;;20.25;69.50
21980;BME280;11154;48.558;9.234;2023-07-20T04:13:47;97453.50;;;20.24;69.13
21980;BME280;11154;48.558;9.234;2023-07-20T04:15:50;97448.72;;;20.26;68.46
21980;BME280;11154;48.558;9.234;2023-07-20T04:17:51;97451.25;;;20.21;67.41
21980;BME280;11154;48.558;9.234;2023-07-20T04:19:53;97451.84;;;20.23;70.15
21980;BME280;11154;48.558;9.234;2023-07-20T04:21:54;97451.59;;;20.25;67.68
21980;BME280;11154;48.558;9.234;2023-07-20T04:23:56;97452.31;;;20.20;66.79
21980;BME280;11154;48.558;9.234;2023-07-20T04:25:57;97448.38;;;20.16;66.65
21980;BME280;11154;48.558;9.234;2023-07-20T04:27:59;97444.88;;;20.16;66.51
21980;BME280;11154;48.558;9.234;2023-07-20T04:30:00;97447.78;;;20.14;66.45
21980;BME280;11154;48.558;9.234;2023-07-20T04:32:04;97449.66;;;20.14;66.73
21980;BME280;11154;48.558;9.234;2023-07-20T04:34:06;97450.69;;;20.13;66.51
21980;BME280;11154;48.558;9.234;2023-07-20T04:36:08;97456.94;;;20.13;67.12
21980;BME280;11154;48.558;9.234;2023-07-20T04:38:09;97447.78;;;20.14;66.55
21980;BME280;11154;48.558;9.234;2023-07-20T04:40:11;97453.56;;;20.18;67.14
21980;BME280;11154;48.558;9.234;2023-07-20T04:42:12;97449.00;;;20.18;68.23
21980;BME280;11154;48.558;9.234;2023-07-20T04:44:14;97437.56;;;20.16;67.85
21980;BME280;11154;48.558;9.234;2023-07-20T04:46:16;97446.53;;;20.17;68.14
21980;BME280;11154;48.558;9.234;2023-07-20T04:48:20;97451.69;;;20.18;69.51
21980;BME280;11154;48.558;9.234;2023-07-20T04:50:22;97455.66;;;20.16;70.40
21980;BME280;11154;48.558;9.234;2023-07-20T04:52:24;97452.34;;;20.14;70.82
21980;BME280;11154;48.558;9.234;2023-07-20T04:54:26;97454.81;;;20.15;71.29
21980;BME280;11154;48.558;9.234;2023-07-20T04:56:28;97458.97;;;20.18;71.87
21980;BME280;11154;48.558;9.234;2023-07-20T04:58:29;97463.09;;;20.20;71.77
21980;BME280;11154;48.558;9.234;2023-07-20T05:00:31;97448.56;;;20.21;71.59
21980;BME280;11154;48.558;9.234;2023-07-20T05:02:33;97453.97;;;20.21;71.66
21980;BME280;11154;48.558;9.234;2023-07-20T05:04:36;97447.28;;;20.24;72.60
21980;BME280;11154;48.558;9.234;2023-07-20T05:06:37;97465.13;;;20.25;71.39
21980;BME280;11154;48.558;9.234;2023-07-20T05:08:39;97463.50;;;20.24;71.59
21980;BME280;11154;48.558;9.234;2023-07-20T05:10:41;97458.47;;;20.27;71.83
21980;BME280;11154;48.558;9.234;2023-07-20T05:12:42;97460.09;;;20.28;71.96
21980;BME280;11154;48.558;9.234;2023-07-20T05:14:44;97464.03;;;20.32;72.09
21980;BME280;11154;48.558;9.234;2023-07-20T05:16:45;97459.81;;;20.36;72.14
21980;BME280;11154;48.558;9.234;2023-07-20T05:18:47;97462.06;;;20.39;71.99
21980;BME280;11154;48.558;9.234;2023-07-20T05:20:49;97460.81;;;20.41;71.30
21980;BME280;11154;48.558;9.234;2023-07-20T05:22:51;97460.34;;;20.44;71.76
21980;BME280;11154;48.558;9.234;2023-07-20T05:24:53;97467.16;;;20.47;72.13
21980;BME280;11154;48.558;9.234;2023-07-20T05:26:54;97463.41;;;20.48;71.61
21980;BME280;11154;48.558;9.234;2023-07-20T05:28:56;97462.75;;;20.52;71.90
21980;BME280;11154;48.558;9.234;2023-07-20T05:30:56;97461.03;;;20.58;72.29
21980;BME280;11154;48.558;9.234;2023-07-20T05:32:59;97459.53;;;20.62;72.63
21980;BME280;11154;48.558;9.234;2023-07-20T05:35:00;97458.72;;;20.61;73.23
21980;BME280;11154;48.558;9.234;2023-07-20T05:37:03;97457.44;;;20.64;72.50
21980;BME280;11154;48.558;9.234;2023-07-20T05:39:05;97446.38;;;20.65;73.05
21980;BME280;11154;48.558;9.234;2023-07-20T05:41:06;97461.31;;;20.68;72.68
21980;BME280;11154;48.558;9.234;2023-07-20T05:43:11;97458.75;;;20.73;73.92
21980;BME280;11154;48.558;9.234;2023-07-20T05:45:12;97453.75;;;20.76;72.48
21980;BME280;11154;48.558;9.234;2023-07-20T05:47:14;97452.13;;;20.75;72.55
21980;BME280;11154;48.558;9.234;2023-07-20T05:49:15;97452.13;;;20.75;73.53
21980;BME280;11154;48.558;9.234;2023-07-20T05:51:17;97451.66;;;20.78;72.58
21980;BME280;11154;48.558;9.234;2023-07-20T05:53:20;97455.78;;;20.81;72.72
21980;BME280;11154;48.558;9.234;2023-07-20T05:55:22;97460.53;;;20.85;72.21
21980;BME280;11154;48.558;9.234;2023-07-20T05:57:22;97456.16;;;20.84;70.96
21980;BME280;11154;48.558;9.234;2023-07-20T05:59:24;97459.84;;;20.90;72.08
21980;BME280;11154;48.558;9.234;2023-07-20T06:01:25;97456.09;;;20.91;72.13
21980;BME280;11154;48.558;9.234;2023-07-20T06:03:28;97465.16;;;20.96;72.61
21980;BME280;11154;48.558;9.234;2023-07-20T06:05:30;97461.16;;;20.99;72.66
21980;BME280;11154;48.558;9.234;2023-07-20T06:07:31;97469.91;;;21.01;72.04
21980;BME280;11154;48.558;9.234;2023-07-20T06:09:34;97464.03;;;21.04;73.03
21980;BME280;11154;48.558;9.234;2023-07-20T06:11:36;97474.50;;;21.00;73.03
21980;BME280;11154;48.558;9.234;2023-07-20T06:13:38;97467.44;;;20.99;72.71
21980;BME280;11154;48.558;9.234;2023-07-20T06:15:39;97465.28;;;21.01;73.54
21980;BME280;11154;48.558;9.234;2023-07-20T06:17:41;97464.63;;;21.05;73.41
21980;BME280;11154;48.558;9.234;2023-07-20T06:19:43;97463.13;;;21.09;73.02
21980;BME280;11154;48.558;9.234;2023-07-20T06:21:44;97466.22;;;21.13;74.07
21980;BME280;11154;48.558;9.234;2023-07-20T06:23:46;97474.09;;;21.14;72.70
21980;BME280;11154;48.558;9.234;2023-07-20T06:25:48;97465.28;;;21.19;72.76
21980;BME280;11154;48.558;9.234;2023-07-20T06:27:50;97469.84;;;21.18;73.43
21980;BME280;11154;48.558;9.234;2023-07-20T06:29:52;97470.47;;;21.20;72.68
21980;BME280;11154;48.558;9.234;2023-07-20T06:31:54;97461.88;;;21.23;73.72
21980;BME280;11154;48.558;9.234;2023-07-20T06:33:55;97459.16;;;21.23;72.70
21980;BME280;11154;48.558;9.234;2023-07-20T06:35:57;97459.34;;;21.28;73.36
21980;BME280;11154;48.558;9.234;2023-07-20T06:37:59;97466.16;;;21.31;71.83
21980;BME280;11154;48.558;9.234;2023-07-20T06:40:01;97458.84;;;21.31;72.34
21980;BME280;11154;48.558;9.234;2023-07-20T06:42:05;97461.00;;;21.29;72.53
21980;BME280;11154;48.558;9.234;2023-07-20T06:44:07;97464.03;;;21.33;72.13
21980;BME280;11154;48.558;9.234;2023-07-20T06:46:08;97461.13;;;21.34;71.77
21980;BME280;11154;48.558;9.234;2023-07-20T06:48:10;97457.13;;;21.37;73.40
21980;BME280;11154;48.558;9.234;2023-07-20T06:50:12;97456.06;;;21.38;73.00
21980;BME280;11154;48.558;9.234;2023-07-20T06:52:14;97462.91;;;21.40;72.06
21980;BME280;11154;48.558;9.234;2023-07-20T06:54:15;97462.22;;;21.45;72.98
21980;BME280;11154;48.558;9.234;2023-07-20T06:56:17;97463.63;;;21.47;72.72
21980;BME280;11154;48.558;9.234;2023-07-20T06:58:20;97461.50;;;21.49;71.05
21980;BME280;11154;48.558;9.234;2023-07-20T07:00:22;97448.56;;;21.51;71.26
21980;BME280;11154;48.558;9.234;2023-07-20T07:02:24;97455.44;;;21.54;69.87
21980;BME280;11154;48.558;9.234;2023-07-20T07:04:25;97452.28;;;21.57;70.22
21980;BME280;11154;48.558;9.234;2023-07-20T07:06:27;97459.09;;;21.59;71.51
21980;BME280;11154;48.558;9.234;2023-07-20T07:08:29;97457.22;;;21.60;71.49
21980;BME280;11154;48.558;9.234;2023-07-20T07:10:31;97457.94;;;21.67;72.82
21980;BME280;11154;48.558;9.234;2023-07-20T07:12:33;97460.56;;;21.73;71.20
21980;BME280;11154;48.558;9.234;2023-07-20T07:14:35;97446.09;;;21.79;69.47
21980;BME280;11154;48.558;9.234;2023-07-20T07:16:37;97457.63;;;21.86;71.62
21980;BME280;11154;48.558;9.234;2023-07-20T07:18:38;97463.41;;;21.89;71.20
21980;BME280;11154;48.558;9.234;2023-07-20T07:20:40;97453.16;;;21.91;70.34
21980;BME280;11154;48.558;9.234;2023-07-20T07:22:42;97448.81;;;22.02;71.65
21980;BME280;11154;48.558;9.234;2023-07-20T07:24:44;97457.78;;;22.02;68.41
21980;BME280;11154;48.558;9.234;2023-07-20T07:26:45;97459.31;;;22.10;67.06
21980;BME280;11154;48.558;9.234;2023-07-20T07:28:47;97457.31;;;22.17;67.99
21980;BME280;11154;48.558;9.234;2023-07-20T07:30:50;97455.75;;;22.21;66.69
21980;BME280;11154;48.558;9.234;2023-07-20T07:32:51;97452.34;;;22.25;67.35
21980;BME280;11154;48.558;9.234;2023-07-20T07:34:53;97448.13;;;22.29;69.83
21980;BME280;11154;48.558;9.234;2023-07-20T07:36:55;97457.66;;;22.32;67.61
21980;BME280;11154;48.558;9.234;2023-07-20T07:38:57;97448.38;;;22.39;69.88
21980;BME280;11154;48.558;9.234;2023-07-20T07:40:59;97445.28;;;22.47;67.00
21980;BME280;11154;48.558;9.234;2023-07-20T07:43:00;97453.22;;;22.49;66.08
21980;BME280;11154;48.558;9.234;2023-07-20T07:45:02;97444.81;;;22.61;64.10
21980;BME280;11154;48.558;9.234;2023-07-20T07:47:06;97452.34;;;22.71;63.17
21980;BME280;11154;48.558;9.234;2023-07-20T07:49:07;97447.97;;;22.81;67.05
21980;BME280;11154;48.558;9.234;2023-07-20T07:51:09;97442.63;;;22.86;66.27
21980;BME280;11154;48.558;9.234;2023-07-20T07:53:10;97445.34;;;22.86;64.52
21980;BME280;11154;48.558;9.234;2023-07-20T07:55:12;97441.44;;;22.94;67.56
21980;BME280;11154;48.558;9.234;2023-07-20T07:57:14;97434.34;;;22.93;65.45
21980;BME280;11154;48.558;9.234;2023-07-20T07:59:15;97442.03;;;22.96;64.54
21980;BME280;11154;48.558;9.234;2023-07-20T08:01:17;97442.38;;;22.99;66.66
21980;BME280;11154;48.558;9.234;2023-07-20T08:03:20;97445.63;;;23.01;65.61
21980;BME280;11154;48.558;9.234;2023-07-20T08:05:22;97448.50;;;23.06;66.70
21980;BME280;11154;48.558;9.234;2023-07-20T08:07:23;97434.94;;;23.06;62.10
21980;BME280;11154;48.558;9.234;2023-07-20T08:09:25;97435.13;;;23.16;65.49
21980;BME280;11154;48.558;9.234;2023-07-20T08:11:26;97439.47;;;23.28;65.62
21980;BME280;11154;48.558;9.234;2023-07-20T08:13:31;97440.59;;;23.32;62.28
21980;BME280;11154;48.558;9.234;2023-07-20T08:15:32;97441.63;;;23.43;63.48
21980;BME280;11154;48.558;9.234;2023-07-20T08:17:34;97442.56;;;23.48;63.19
21980;BME280;11154;48.558;9.234;2023-07-20T08:19:37;97437.94;;;23.49;61.96
21980;BME280;11154;48.558;9.234;2023-07-20T08:21:42;97443.69;;;23.52;59.12
21980;BME280;11154;48.558;9.234;2023-07-20T08:23:43;97445.34;;;23.53;59.96
21980;BME280;11154;48.558;9.234;2023-07-20T08:25:45;97443.84;;;23.46;59.45
21980;BME280;11154;48.558;9.234;2023-07-20T08:27:47;97445.03;;;23.50;60.55
21980;BME280;11154;48.558;9.234;2023-07-20T08:29:48;97439.91;;;23.53;62.21
21980;BME280;11154;48.558;9.234;2023-07-20T08:31:50;97437.38;;;23.63;62.80
21980;BME280;11154;48.558;9.234;2023-07-20T08:33:51;97437.03;;;23.60;59.80
21980;BME280;11154;48.558;9.234;2023-07-20T08:35:54;97430.38;;;23.51;56.43
21980;BME280;11154;48.558;9.234;2023-07-20T08:37:56;97435.88;;;23.56;60.31
21980;BME280;11154;48.558;9.234;2023-07-20T08:39:58;97426.75;;;23.62;56.99
21980;BME280;11154;48.558;9.234;2023-07-20T08:42:01;97438.41;;;23.74;58.87
21980;BME280;11154;48.558;9.234;2023-07-20T08:44:05;97432.25;;;23.78;56.31
21980;BME280;11154;48.558;9.234;2023-07-20T08:46:07;97429.34;;;23.85;55.99
21980;BME280;11154;48.558;9.234;2023-07-20T08:48:11;97431.66;;;23.93;58.81
21980;BME280;11154;48.558;9.234;2023-07-20T08:50:13;97428.03;;;24.03;58.17
21980;BME280;11154;48.558;9.234;2023-07-20T08:52:17;97425.25;;;23.99;55.92
21980;BME280;11154;48.558;9.234;2023-07-20T08:54:19;97422.13;;;24.06;60.04
21980;BME280;11154;48.558;9.234;2023-07-20T08:56:20;97427.88;;;24.10;54.21
21980;BME280;11154;48.558;9.234;2023-07-20T08:58:25;97425.56;;;24.18;53.98
21980;BME280;11154;48.558;9.234;2023-07-20T09:00:28;97421.19;;;24.17;51.61
21980;BME280;11154;48.558;9.234;2023-07-20T09:02:31;97421.25;;;24.22;53.32
21980;BME280;11154;48.558;9.234;2023-07-20T09:04:35;97419.59;;;24.38;55.18
21980;BME280;11154;48.558;9.234;2023-07-20T09:06:37;97423.31;;;24.48;52.45
21980;BME280;11154;48.558;9.234;2023-07-20T09:08:40;97420.16;;;24.56;53.27
21980;BME280;11154;48.558;9.234;2023-07-20T09:10:42;97417.28;;;24.63;53.80
21980;BME280;11154;48.558;9.234;2023-07-20T09:12:44;97418.72;;;24.70;55.42
21980;BME280;11154;48.558;9.234;2023-07-20T09:14:45;97418.09;;;24.84;55.21
21980;BME280;11154;48.558;9.234;2023-07-20T09:16:50;97416.81;;;24.92;55.13
21980;BME280;11154;48.558;9.234;2023-07-20T09:18:52;97421.75;;;24.95;54.59
21980;BME280;11154;48.558;9.234;2023-07-20T09:20:53;97403.34;;;25.02;50.48
21980;BME280;11154;48.558;9.234;2023-07-20T09:23:04;97414.81;;;25.04;50.76
21980;BME280;11154;48.558;9.234;2023-07-20T09:25:11;97412.75;;;25.11;49.70
21980;BME280;11154;48.558;9.234;2023-07-20T09:27:13;97412.50;;;25.12;50.23
21980;BME280;11154;48.558;9.234;2023-07-20T09:29:18;97397.16;;;25.06;48.15
21980;BME280;11154;48.558;9.234;2023-07-20T09:31:20;97413.16;;;25.03;48.54
21980;BME280;11154;48.558;9.234;2023-07-20T09:33:22;97404.72;;;25.04;50.60
21980;BME280;11154;48.558;9.234;2023-07-20T09:35:24;97415.63;;;25.04;48.69
21980;BME280;11154;48.558;9.234;2023-07-20T09:37:26;97408.13;;;25.11;49.47
21980;BME280;11154;48.558;9.234;2023-07-20T09:39:28;97412.81;;;25.16;49.25
21980;BME280;11154;48.558;9.234;2023-07-20T09:41:39;97406.34;;;25.22;50.98
21980;BME280;11154;48.558;9.234;2023-07-20T09:43:40;97403.66;;;25.27;50.81
21980;BME280;11154;48.558;9.234;2023-07-20T09:45:42;97396.59;;;25.31;49.88
21980;BME280;11154;48.558;9.234;2023-07-20T09:47:44;97410.00;;;25.32;47.35
21980;BME280;11154;48.558;9.234;2023-07-20T09:49:46;97402.38;;;25.34;51.17
21980;BME280;11154;48.558;9.234;2023-07-20T09:51:48;97396.69;;;25.36;49.22
21980;BME280;11154;48.558;9.234;2023-07-20T09:53:52;97390.22;;;25.42;50.96
21980;BME280;11154;48.558;9.234;2023-07-20T09:55:54;97393.53;;;25.49;51.74
21980;BME280;11154;48.558;9.234;2023-07-20T09:57:58;97393.59;;;25.53;48.03
21980;BME280;11154;48.558;9.234;2023-07-20T10:00:00;97389.88;;;25.64;50.98
21980;BME280;11154;48.558;9.234;2023-07-20T10:02:11;97391.47;;;25.60;48.04
21980;BME280;11154;48.558;9.234;2023-07-20T10:04:18;97395.25;;;25.54;46.16
21980;BME280;11154;48.558;9.234;2023-07-20T10:06:24;97382.69;;;25.53;48.15
21980;BME280;11154;48.558;9.234;2023-07-20T10:08:26;97389.25;;;25.57;50.15
21980;BME280;11154;48.558;9.234;2023-07-20T10:10:31;97384.94;;;25.61;48.21
21980;BME280;11154;48.558;9.234;2023-07-20T10:12:34;97386.63;;;25.67;49.38
21980;BME280;11154;48.558;9.234;2023-07-20T10:14:41;97383.91;;;25.67;47.18
21980;BME280;11154;48.558;9.234;2023-07-20T10:16:50;97377.59;;;25.62;43.66
21980;BME280;11154;48.558;9.234;2023-07-20T10:19:01;97379.44;;;25.56;44.10
21980;BME280;11154;48.558;9.234;2023-07-20T10:21:06;97375.59;;;25.52;44.55
21980;BME280;11154;48.558;9.234;2023-07-20T10:23:08;97376.38;;;25.48;45.21
21980;BME280;11154;48.558;9.234;2023-07-20T10:25:10;97375.78;;;25.46;45.69
21980;BME280;11154;48.558;9.234;2023-07-20T10:27:14;97361.91;;;25.43;43.72
21980;BME280;11154;48.558;9.234;2023-07-20T10:29:16;97365.38;;;25.38;45.38
21980;BME280;11154;48.558;9.234;2023-07-20T10:31:20;97365.63;;;25.37;42.10
21980;BME280;11154;48.558;9.234;2023-07-20T10:33:22;97358.47;;;25.31;42.85
21980;BME280;11154;48.558;9.234;2023-07-20T10:35:25;97361.44;;;25.24;42.99
21980;BME280;11154;48.558;9.234;2023-07-20T10:37:46;97357.09;;;25.28;44.73
21980;BME280;11154;48.558;9.234;2023-07-20T10:39:47;97352.50;;;25.29;42.40
21980;BME280;11154;48.558;9.234;2023-07-20T10:41:48;97354.66;;;25.27;42.64
21980;BME280;11154;48.558;9.234;2023-07-20T10:43:50;97348.63;;;25.25;41.58
21980;BME280;11154;48.558;9.234;2023-07-20T10:45:52;97346.44;;;25.22;42.66
21980;BME280;11154;48.558;9.234;2023-07-20T10:47:55;97350.59;;;25.29;43.40
21980;BME280;11154;48.558;9.234;2023-07-20T10:50:00;97343.34;;;25.40;44.29
21980;BME280;11154;48.558;9.234;2023-07-20T10:52:04;97345.09;;;25.55;46.40